sensor_id;sensor_type;location;lat;lon;timestamp;temperature;humidity
67050;DHT22;53955;52.442;13.284;2023-01-16T00:01:15;7.70;62.10
67050;DHT22;53955;52.442;13.284;2023-01-16T00:03:43;7.60;62.40
67050;DHT22;53955;52.442;13.284;2023-01-16T00:06:10;7.80;61.90
67050;DHT22;53955;52.442;13.284;2023-01-16T00:08:36;7.70;61.50
67050;DHT22;53955;52.442;13.284;2023-01-16T00:11:03;7.70;61.70
67050;DHT22;53955;52.442;13.284;2023-01-16T00:13:29;7.70;62.10
67050;DHT22;53955;52.442;13.284;2023-01-16T00:15:56;7.60;62.30
67050;DHT22;53955;52.442;13.284;2023-01-16T00:18:22;7.70;62.10
67050;DHT22;53955;52.442;13.284;2023-01-16T00:20:50;7.70;61.80
67050;DHT22;53955;52.442;13.284;2023-01-16T00:23:17;7.80;61.70
67050;DHT22;53955;52.442;13.284;2023-01-16T00:25:44;7.80;61.70
67050;DHT22;53955;52.442;13.284;2023-01-16T00:28:13;7.70;61.80
67050;DHT22;53955;52.442;13.284;2023-01-16T00:30:40;7.80;61.70
67050;DHT22;53955;52.442;13.284;2023-01-16T00:33:07;7.70;61.80
67050;DHT22;53955;52.442;13.284;2023-01-16T00:35:35;7.60;61.60
67050;DHT22;53955;52.442;13.284;2023-01-16T00:38:03;7.70;62.00
67050;DHT22;53955;52.442;13.284;2023-01-16T00:40:29;7.60;61.70
67050;DHT22;53955;52.442;13.284;2023-01-16T00:42:56;7.70;61.90
67050;DHT22;53955;52.442;13.284;2023-01-16T00:45:22;7.70;61.50
67050;DHT22;53955;52.442;13.284;2023-01-16T00:47:49;7.60;61.40
67050;DHT22;53955;52.442;13.284;2023-01-16T00:50:16;7.60;61.60
67050;DHT22;53955;52.442;13.284;2023-01-16T00:52:42;7.50;61.70
67050;DHT22;53955;52.442;13.284;2023-01-16T00:55:10;7.60;61.60
67050;DHT22;53955;52.442;13.284;2023-01-16T00:57:37;7.50;61.70
67050;DHT22;53955;52.442;13.284;2023-01-16T01:00:04;7.50;61.80
67050;DHT22;53955;52.442;13.284;2023-01-16T01:02:31;7.60;62.00
67050;DHT22;53955;52.442;13.284;2023-01-16T01:04:58;7.50;62.30
67050;DHT22;53955;52.442;13.284;2023-01-16T01:07:24;7.50;62.60
67050;DHT22;53955;52.442;13.284;2023-01-16T01:09:51;7.50;61.90
67050;DHT22;53955;52.442;13.284;2023-01-16T01:12:19;7.50;61.90
67050;DHT22;53955;52.442;13.284;2023-01-16T01:14:46;7.40;61.70
67050;DHT22;53955;52.442;13.284;2023-01-16T01:17:12;7.30;62.30
67050;DHT22;53955;52.442;13.284;2023-01-16T01:19:39;7.20;62.50
67050;DHT22;53955;52.442;13.284;2023-01-16T01:22:05;7.30;62.50
67050;DHT22;53955;52.442;13.284;2023-01-16T01:24:32;7.20;62.70
67050;DHT22;53955;52.442;13.284;2023-01-16T01:26:59;7.20;62.70
67050;DHT22;53955;52.442;13.284;2023-01-16T01:29:27;7.40;62.70
67050;DHT22;53955;52.442;13.284;2023-01-16T01:31:53;7.40;62.30
67050;DHT22;53955;52.442;13.284;2023-01-16T01:34:20;7.50;62.80
67050;DHT22;53955;52.442;13.284;2023-01-16T01:36:47;7.20;61.90
67050;DHT22;53955;52.442;13.284;2023-01-16T01:39:13;7.30;62.10
67050;DHT22;53955;52.442;13.284;2023-01-16T01:41:40;7.30;61.80
67050;DHT22;53955;52.442;13.284;2023-01-16T01:47:04;7.30;62.70
67050;DHT22;53955;52.442;13.284;2023-01-16T01:49:31;7.30;62.20
67050;DHT22;53955;52.442;13.284;2023-01-16T01:52:01;7.10;62.20
67050;DHT22;53955;52.442;13.284;2023-01-16T01:54:32;7.00;63.10
67050;DHT22;53955;52.442;13.284;2023-01-16T01:57:05;7.00;62.80
67050;DHT22;53955;52.442;13.284;2023-01-16T01:59:38;7.10;63.00
67050;DHT22;53955;52.442;13.284;2023-01-16T02:02:09;7.20;62.40
67050;DHT22;53955;52.442;13.284;2023-01-16T02:04:41;7.10;63.40
67050;DHT22;53955;52.442;13.284;2023-01-16T02:07:09;7.10;63.40
67050;DHT22;53955;52.442;13.284;2023-01-16T02:09:38;7.00;63.30
67050;DHT22;53955;52.442;13.284;2023-01-16T02:12:07;6.80;63.70
67050;DHT22;53955;52.442;13.284;2023-01-16T02:14:36;6.90;63.30
67050;DHT22;53955;52.442;13.284;2023-01-16T02:17:05;7.00;63.80
67050;DHT22;53955;52.442;13.284;2023-01-16T02:19:57;6.60;63.30
67050;DHT22;53955;52.442;13.284;2023-01-16T02:25:44;7.00;63.60
67050;DHT22;53955;52.442;13.284;2023-01-16T02:28:57;6.90;63.70
67050;DHT22;53955;52.442;13.284;2023-01-16T02:31:35;6.90;63.90
67050;DHT22;53955;52.442;13.284;2023-01-16T02:34:19;6.90;63.40
67050;DHT22;53955;52.442;13.284;2023-01-16T02:36:57;7.00;64.00
67050;DHT22;53955;52.442;13.284;2023-01-16T02:39:35;6.90;63.70
67050;DHT22;53955;52.442;13.284;2023-01-16T02:42:12;7.00;63.50
67050;DHT22;53955;52.442;13.284;2023-01-16T02:44:48;7.20;64.00
67050;DHT22;53955;52.442;13.284;2023-01-16T02:47:22;7.00;63.30
67050;DHT22;53955;52.442;13.284;2023-01-16T02:49:55;7.00;63.10
67050;DHT22;53955;52.442;13.284;2023-01-16T02:52:24;7.10;63.10
67050;DHT22;53955;52.442;13.284;2023-01-16T02:54:56;6.90;63.20
67050;DHT22;53955;52.442;13.284;2023-01-16T02:57:29;7.10;64.70
67050;DHT22;53955;52.442;13.284;2023-01-16T02:59:57;7.10;63.90
67050;DHT22;53955;52.442;13.284;2023-01-16T03:02:25;7.00;63.90
67050;DHT22;53955;52.442;13.284;2023-01-16T03:04:52;7.10;64.40
67050;DHT22;53955;52.442;13.284;2023-01-16T03:10:34;7.00;64.00
67050;DHT22;53955;52.442;13.284;2023-01-16T03:13:14;7.10;64.00
67050;DHT22;53955;52.442;13.284;2023-01-16T03:15:50;7.10;64.50
67050;DHT22;53955;52.442;13.284;2023-01-16T03:18:26;7.10;63.60
67050;DHT22;53955;52.442;13.284;2023-01-16T03:21:04;6.90;63.80
67050;DHT22;53955;52.442;13.284;2023-01-16T03:23:39;7.00;63.70
67050;DHT22;53955;52.442;13.284;2023-01-16T03:26:09;6.90;64.40
67050;DHT22;53955;52.442;13.284;2023-01-16T03:28:43;6.70;64.00
67050;DHT22;53955;52.442;13.284;2023-01-16T03:31:15;6.80;64.10
67050;DHT22;53955;52.442;13.284;2023-01-16T03:33:50;6.70;64.30
67050;DHT22;53955;52.442;13.284;2023-01-16T03:36:28;6.50;65.00
67050;DHT22;53955;52.442;13.284;2023-01-16T03:38:57;6.60;65.90
67050;DHT22;53955;52.442;13.284;2023-01-16T03:41:27;6.50;64.70
67050;DHT22;53955;52.442;13.284;2023-01-16T03:44:01;6.60;65.70
67050;DHT22;53955;52.442;13.284;2023-01-16T03:46:31;6.40;66.80
67050;DHT22;53955;52.442;13.284;2023-01-16T03:49:04;6.40;66.50
67050;DHT22;53955;52.442;13.284;2023-01-16T03:51:37;6.40;65.40
67050;DHT22;53955;52.442;13.284;2023-01-16T03:54:11;6.40;65.70
67050;DHT22;53955;52.442;13.284;2023-01-16T03:56:45;6.60;66.00
67050;DHT22;53955;52.442;13.284;2023-01-16T03:59:12;6.60;66.60
67050;DHT22;53955;52.442;13.284;2023-01-16T04:01:44;6.70;66.70
67050;DHT22;53955;52.442;13.284;2023-01-16T04:04:17;6.60;66.90
67050;DHT22;53955;52.442;13.284;2023-01-16T04:06:49;6.80;66.30
67050;DHT22;53955;52.442;13.284;2023-01-16T04:09:21;6.60;66.80
67050;DHT22;53955;52.442;13.284;2023-01-16T04:11:50;6.60;65.90
67050;DHT22;53955;52.442;13.284;2023-01-16T04:14:20;6.60;67.20
67050;DHT22;53955;52.442;13.284;2023-01-16T04:16:49;6.50;67.30
67050;DHT22;53955;52.442;13.284;2023-01-16T04:19:19;6.60;66.80
67050;DHT22;53955;52.442;13.284;2023-01-16T04:21:46;6.50;67.50
67050;DHT22;53955;52.442;13.284;2023-01-16T04:24:14;6.70;67.10
67050;DHT22;53955;52.442;13.284;2023-01-16T04:26:42;6.50;66.50
67050;DHT22;53955;52.442;13.284;2023-01-16T04:29:08;6.60;67.40
67050;DHT22;53955;52.442;13.284;2023-01-16T04:31:35;6.40;68.20
67050;DHT22;53955;52.442;13.284;2023-01-16T04:34:01;6.70;67.30
67050;DHT22;53955;52.442;13.284;2023-01-16T04:36:29;6.70;66.90
67050;DHT22;53955;52.442;13.284;2023-01-16T04:38:56;6.50;67.40
67050;DHT22;53955;52.442;13.284;2023-01-16T04:41:23;6.60;67.10
67050;DHT22;53955;52.442;13.284;2023-01-16T04:44:02;6.70;66.90
67050;DHT22;53955;52.442;13.284;2023-01-16T04:46:29;6.70;67.20
67050;DHT22;53955;52.442;13.284;2023-01-16T04:48:56;6.70;67.70
67050;DHT22;53955;52.442;13.284;2023-01-16T04:51:22;6.40;67.50
67050;DHT22;53955;52.442;13.284;2023-01-16T04:53:50;6.60;67.90
67050;DHT22;53955;52.442;13.284;2023-01-16T04:56:17;6.60;67.50
67050;DHT22;53955;52.442;13.284;2023-01-16T04:58:44;6.50;68.00
67050;DHT22;53955;52.442;13.284;2023-01-16T05:01:10;6.60;67.20
67050;DHT22;53955;52.442;13.284;2023-01-16T05:03:37;6.60;66.40
67050;DHT22;53955;52.442;13.284;2023-01-16T05:06:04;6.50;67.10
67050;DHT22;53955;52.442;13.284;2023-01-16T05:08:30;6.50;67.00
67050;DHT22;53955;52.442;13.284;2023-01-16T05:10:58;6.40;66.80
67050;DHT22;53955;52.442;13.284;2023-01-16T05:13:27;6.30;66.90
67050;DHT22;53955;52.442;13.284;2023-01-16T05:15:53;6.50;66.20
67050;DHT22;53955;52.442;13.284;2023-01-16T05:18:20;6.50;67.40
67050;DHT22;53955;52.442;13.284;2023-01-16T05:20:47;6.60;67.00
67050;DHT22;53955;52.442;13.284;2023-01-16T05:23:13;6.50;66.80
67050;DHT22;53955;52.442;13.284;2023-01-16T05:25:40;6.30;69.70
67050;DHT22;53955;52.442;13.284;2023-01-16T05:28:08;6.80;72.40
67050;DHT22;53955;52.442;13.284;2023-01-16T05:30:35;6.60;66.60
67050;DHT22;53955;52.442;13.284;2023-01-16T05:33:02;6.60;65.60
67050;DHT22;53955;52.442;13.284;2023-01-16T05:35:30;6.60;66.50
67050;DHT22;53955;52.442;13.284;2023-01-16T05:37:57;6.50;67.00
67050;DHT22;53955;52.442;13.284;2023-01-16T05:40:23;6.40;66.70
67050;DHT22;53955;52.442;13.284;2023-01-16T05:42:50;6.40;66.70
67050;DHT22;53955;52.442;13.284;2023-01-16T05:45:18;6.30;67.70
67050;DHT22;53955;52.442;13.284;2023-01-16T05:47:44;6.30;67.80
67050;DHT22;53955;52.442;13.284;2023-01-16T05:50:11;6.40;67.00
67050;DHT22;53955;52.442;13.284;2023-01-16T05:52:37;6.30;66.60
67050;DHT22;53955;52.442;13.284;2023-01-16T05:55:05;6.30;67.10
67050;DHT22;53955;52.442;13.284;2023-01-16T05:57:31;6.30;66.40
67050;DHT22;53955;52.442;13.284;2023-01-16T05:59:58;6.40;67.50
67050;DHT22;53955;52.442;13.284;2023-01-16T06:02:26;6.40;66.80
67050;DHT22;53955;52.442;13.284;2023-01-16T06:04:52;6.40;66.50
67050;DHT22;53955;52.442;13.284;2023-01-16T06:07:19;6.30;67.10
67050;DHT22;53955;52.442;13.284;2023-01-16T06:09:46;6.40;66.90
67050;DHT22;53955;52.442;13.284;2023-01-16T06:12:14;6.20;66.80
67050;DHT22;53955;52.442;13.284;2023-01-16T06:14:41;6.30;66.90
67050;DHT22;53955;52.442;13.284;2023-01-16T06:17:08;6.30;66.20
67050;DHT22;53955;52.442;13.284;2023-01-16T06:19:36;6.20;66.60
67050;DHT22;53955;52.442;13.284;2023-01-16T06:22:02;6.10;67.10
67050;DHT22;53955;52.442;13.284;2023-01-16T06:24:29;6.40;66.50
67050;DHT22;53955;52.442;13.284;2023-01-16T06:26:56;6.30;66.20
67050;DHT22;53955;52.442;13.284;2023-01-16T06:29:22;6.30;66.80
67050;DHT22;53955;52.442;13.284;2023-01-16T06:31:49;6.40;66.30
67050;DHT22;53955;52.442;13.284;2023-01-16T06:34:16;6.20;66.70
67050;DHT22;53955;52.442;13.284;2023-01-16T06:36:44;6.40;65.60
67050;DHT22;53955;52.442;13.284;2023-01-16T06:39:13;6.30;66.10
67050;DHT22;53955;52.442;13.284;2023-01-16T06:41:40;6.30;66.10
67050;DHT22;53955;52.442;13.284;2023-01-16T06:44:07;6.50;66.20
67050;DHT22;53955;52.442;13.284;2023-01-16T06:46:35;6.50;65.70
67050;DHT22;53955;52.442;13.284;2023-01-16T06:49:02;6.40;64.80
67050;DHT22;53955;52.442;13.284;2023-01-16T06:51:28;6.30;65.60
67050;DHT22;53955;52.442;13.284;2023-01-16T06:53:56;6.50;64.70
67050;DHT22;53955;52.442;13.284;2023-01-16T06:56:23;6.60;65.80
67050;DHT22;53955;52.442;13.284;2023-01-16T06:58:50;6.50;65.80
67050;DHT22;53955;52.442;13.284;2023-01-16T07:01:16;6.50;64.40
67050;DHT22;53955;52.442;13.284;2023-01-16T07:03:43;6.50;65.20
67050;DHT22;53955;52.442;13.284;2023-01-16T07:06:09;6.50;64.60
67050;DHT22;53955;52.442;13.284;2023-01-16T07:08:38;6.30;65.00
67050;DHT22;53955;52.442;13.284;2023-01-16T07:11:06;6.40;65.10
67050;DHT22;53955;52.442;13.284;2023-01-16T07:13:32;6.40;65.60
67050;DHT22;53955;52.442;13.284;2023-01-16T07:15:59;6.40;66.00
67050;DHT22;53955;52.442;13.284;2023-01-16T07:18:43;6.30;65.50
67050;DHT22;53955;52.442;13.284;2023-01-16T07:21:30;6.30;65.90
67050;DHT22;53955;52.442;13.284;2023-01-16T07:24:17;6.40;65.70
67050;DHT22;53955;52.442;13.284;2023-01-16T07:26:47;6.40;65.60
67050;DHT22;53955;52.442;13.284;2023-01-16T07:29:16;6.50;65.50
67050;DHT22;53955;52.442;13.284;2023-01-16T07:31:43;6.50;64.40
67050;DHT22;53955;52.442;13.284;2023-01-16T07:34:10;6.30;65.30
67050;DHT22;53955;52.442;13.284;2023-01-16T07:36:36;6.50;64.80
67050;DHT22;53955;52.442;13.284;2023-01-16T07:39:03;6.30;64.70
67050;DHT22;53955;52.442;13.284;2023-01-16T07:41:29;6.40;64.90
67050;DHT22;53955;52.442;13.284;2023-01-16T07:43:57;6.40;65.40
67050;DHT22;53955;52.442;13.284;2023-01-16T07:46:24;6.40;64.80
67050;DHT22;53955;52.442;13.284;2023-01-16T07:48:51;6.40;65.50
67050;DHT22;53955;52.442;13.284;2023-01-16T07:51:19;6.30;64.40
67050;DHT22;53955;52.442;13.284;2023-01-16T07:53:45;6.20;64.40
67050;DHT22;53955;52.442;13.284;2023-01-16T07:56:12;6.50;63.60
67050;DHT22;53955;52.442;13.284;2023-01-16T07:58:38;6.20;64.60
67050;DHT22;53955;52.442;13.284;2023-01-16T08:01:08;6.40;65.50
67050;DHT22;53955;52.442;13.284;2023-01-16T08:03:35;6.40;64.70
67050;DHT22;53955;52.442;13.284;2023-01-16T08:06:02;6.50;63.30
67050;DHT22;53955;52.442;13.284;2023-01-16T08:08:29;6.60;64.00
67050;DHT22;53955;52.442;13.284;2023-01-16T08:10:57;6.60;63.90
67050;DHT22;53955;52.442;13.284;2023-01-16T08:13:24;6.60;63.40
67050;DHT22;53955;52.442;13.284;2023-01-16T08:15:52;6.50;63.60
67050;DHT22;53955;52.442;13.284;2023-01-16T08:18:20;6.60;63.80
67050;DHT22;53955;52.442;13.284;2023-01-16T08:20:46;6.50;63.60
67050;DHT22;53955;52.442;13.284;2023-01-16T08:23:13;6.50;63.30
67050;DHT22;53955;52.442;13.284;2023-01-16T08:25:40;6.50;63.10
67050;DHT22;53955;52.442;13.284;2023-01-16T08:28:06;6.60;62.30
67050;DHT22;53955;52.442;13.284;2023-01-16T08:30:33;6.50;62.80
67050;DHT22;53955;52.442;13.284;2023-01-16T08:33:00;6.90;62.50
67050;DHT22;53955;52.442;13.284;2023-01-16T08:35:28;7.10;60.80
67050;DHT22;53955;52.442;13.284;2023-01-16T08:37:55;7.40;60.30
67050;DHT22;53955;52.442;13.284;2023-01-16T08:40:22;7.60;60.30
67050;DHT22;53955;52.442;13.284;2023-01-16T08:42:48;8.80;56.00
67050;DHT22;53955;52.442;13.284;2023-01-16T08:45:32;9.90;52.60
67050;DHT22;53955;52.442;13.284;2023-01-16T08:48:21;10.80;50.00
67050;DHT22;53955;52.442;13.284;2023-01-16T08:51:14;11.50;48.60
67050;DHT22;53955;52.442;13.284;2023-01-16T08:53:51;11.20;47.90
67050;DHT22;53955;52.442;13.284;2023-01-16T08:56:18;10.40;49.30
67050;DHT22;53955;52.442;13.284;2023-01-16T08:58:45;9.50;51.40
67050;DHT22;53955;52.442;13.284;2023-01-16T09:01:11;9.00;53.40
67050;DHT22;53955;52.442;13.284;2023-01-16T09:03:38;9.00;54.00
67050;DHT22;53955;52.442;13.284;2023-01-16T09:06:05;9.00;53.70
67050;DHT22;53955;52.442;13.284;2023-01-16T09:08:33;9.20;53.90
67050;DHT22;53955;52.442;13.284;2023-01-16T09:11:00;9.30;53.50
67050;DHT22;53955;52.442;13.284;2023-01-16T09:13:44;9.20;53.40
67050;DHT22;53955;52.442;13.284;2023-01-16T09:16:16;9.20;54.30
67050;DHT22;53955;52.442;13.284;2023-01-16T09:18:43;8.80;55.10
67050;DHT22;53955;52.442;13.284;2023-01-16T09:21:09;8.70;54.80
67050;DHT22;53955;52.442;13.284;2023-01-16T09:23:37;8.80;55.10
67050;DHT22;53955;52.442;13.284;2023-01-16T09:26:04;8.70;55.40
67050;DHT22;53955;52.442;13.284;2023-01-16T09:28:31;8.70;55.20
67050;DHT22;53955;52.442;13.284;2023-01-16T09:30:57;8.60;54.80
67050;DHT22;53955;52.442;13.284;2023-01-16T09:33:24;8.60;55.30
67050;DHT22;53955;52.442;13.284;2023-01-16T09:35:51;8.50;55.70
67050;DHT22;53955;52.442;13.284;2023-01-16T09:38:17;8.40;55.60
67050;DHT22;53955;52.442;13.284;2023-01-16T09:40:46;8.50;55.90
67050;DHT22;53955;52.442;13.284;2023-01-16T09:43:33;8.30;56.20
67050;DHT22;53955;52.442;13.284;2023-01-16T09:46:11;8.30;56.30
67050;DHT22;53955;52.442;13.284;2023-01-16T09:48:46;8.40;56.20
67050;DHT22;53955;52.442;13.284;2023-01-16T09:51:18;8.40;56.00
67050;DHT22;53955;52.442;13.284;2023-01-16T09:53:49;8.50;55.80
67050;DHT22;53955;52.442;13.284;2023-01-16T09:56:39;8.50;56.10
67050;DHT22;53955;52.442;13.284;2023-01-16T09:59:27;8.50;55.20
67050;DHT22;53955;52.442;13.284;2023-01-16T10:01:59;8.50;54.80
67050;DHT22;53955;52.442;13.284;2023-01-16T10:04:28;8.50;55.10
67050;DHT22;53955;52.442;13.284;2023-01-16T10:07:17;8.60;54.30
67050;DHT22;53955;52.442;13.284;2023-01-16T10:09:51;8.60;54.20
67050;DHT22;53955;52.442;13.284;2023-01-16T10:12:30;8.60;53.40
67050;DHT22;53955;52.442;13.284;2023-01-16T10:15:11;8.60;54.10
67050;DHT22;53955;52.442;13.284;2023-01-16T10:17:48;8.70;53.70
67050;DHT22;53955;52.442;13.284;2023-01-16T10:20:31;8.70;53.40
67050;DHT22;53955;52.442;13.284;2023-01-16T10:23:08;8.50;52.60
67050;DHT22;53955;52.442;13.284;2023-01-16T10:25:42;8.60;52.50
67050;DHT22;53955;52.442;13.284;2023-01-16T10:28:25;8.60;53.10
67050;DHT22;53955;52.442;13.284;2023-01-16T10:30:54;8.60;53.20
67050;DHT22;53955;52.442;13.284;2023-01-16T10:33:27;8.60;53.00
67050;DHT22;53955;52.442;13.284;2023-01-16T10:35:58;8.30;52.30
67050;DHT22;53955;52.442;13.284;2023-01-16T10:38:34;8.60;52.30
67050;DHT22;53955;52.442;13.284;2023-01-16T10:41:13;8.60;53.70
67050;DHT22;53955;52.442;13.284;2023-01-16T10:43:56;8.60;52.10
67050;DHT22;53955;52.442;13.284;2023-01-16T10:46:41;8.80;52.70
67050;DHT22;53955;52.442;13.284;2023-01-16T10:49:26;8.80;53.00
67050;DHT22;53955;52.442;13.284;2023-01-16T10:51:52;8.90;52.90
67050;DHT22;53955;52.442;13.284;2023-01-16T10:54:19;9.00;51.80
67050;DHT22;53955;52.442;13.284;2023-01-16T10:56:46;8.90;51.10
67050;DHT22;53955;52.442;13.284;2023-01-16T10:59:15;8.90;52.10
67050;DHT22;53955;52.442;13.284;2023-01-16T11:01:42;8.90;51.70
67050;DHT22;53955;52.442;13.284;2023-01-16T11:04:10;8.90;52.20
67050;DHT22;53955;52.442;13.284;2023-01-16T11:06:37;8.90;51.70
67050;DHT22;53955;52.442;13.284;2023-01-16T11:09:16;9.00;51.70
67050;DHT22;53955;52.442;13.284;2023-01-16T11:11:43;9.00;51.50
67050;DHT22;53955;52.442;13.284;2023-01-16T11:14:31;9.00;50.70
67050;DHT22;53955;52.442;13.284;2023-01-16T11:17:25;9.10;49.20
67050;DHT22;53955;52.442;13.284;2023-01-16T11:20:14;9.10;51.10
67050;DHT22;53955;52.442;13.284;2023-01-16T11:22:44;9.30;50.50
67050;DHT22;53955;52.442;13.284;2023-01-16T11:25:15;9.30;50.60
67050;DHT22;53955;52.442;13.284;2023-01-16T11:27:44;9.20;50.10
67050;DHT22;53955;52.442;13.284;2023-01-16T11:30:18;9.30;49.50
67050;DHT22;53955;52.442;13.284;2023-01-16T11:32:46;9.40;49.50
67050;DHT22;53955;52.442;13.284;2023-01-16T11:35:15;9.40;49.40
67050;DHT22;53955;52.442;13.284;2023-01-16T11:37:43;9.50;49.50
67050;DHT22;53955;52.442;13.284;2023-01-16T11:40:16;9.50;49.70
67050;DHT22;53955;52.442;13.284;2023-01-16T11:42:51;9.40;49.20
67050;DHT22;53955;52.442;13.284;2023-01-16T11:45:40;9.30;48.30
67050;DHT22;53955;52.442;13.284;2023-01-16T11:48:25;9.40;47.70
67050;DHT22;53955;52.442;13.284;2023-01-16T11:50:53;9.40;48.70
67050;DHT22;53955;52.442;13.284;2023-01-16T11:53:21;9.30;49.80
67050;DHT22;53955;52.442;13.284;2023-01-16T11:56:22;9.50;49.70
67050;DHT22;53955;52.442;13.284;2023-01-16T11:58:57;9.50;49.50
67050;DHT22;53955;52.442;13.284;2023-01-16T12:01:42;9.50;49.50
67050;DHT22;53955;52.442;13.284;2023-01-16T12:04:24;9.50;49.50
67050;DHT22;53955;52.442;13.284;2023-01-16T12:06:58;9.50;49.50
67050;DHT22;53955;52.442;13.284;2023-01-16T12:09:47;9.50;48.90
67050;DHT22;53955;52.442;13.284;2023-01-16T12:12:19;9.50;48.40
67050;DHT22;53955;52.442;13.284;2023-01-16T12:15:09;9.50;48.60
67050;DHT22;53955;52.442;13.284;2023-01-16T12:17:51;9.60;47.90
67050;DHT22;53955;52.442;13.284;2023-01-16T12:20:28;9.60;47.90
67050;DHT22;53955;52.442;13.284;2023-01-16T12:23:16;9.50;47.80
67050;DHT22;53955;52.442;13.284;2023-01-16T12:25:56;9.50;47.50
67050;DHT22;53955;52.442;13.284;2023-01-16T12:28:33;9.50;48.30
67050;DHT22;53955;52.442;13.284;2023-01-16T12:31:11;9.50;46.60
67050;DHT22;53955;52.442;13.284;2023-01-16T12:34:06;9.50;47.40
67050;DHT22;53955;52.442;13.284;2023-01-16T12:36:41;9.60;46.70
67050;DHT22;53955;52.442;13.284;2023-01-16T12:39:13;9.70;46.60
67050;DHT22;53955;52.442;13.284;2023-01-16T12:41:46;9.70;47.00
67050;DHT22;53955;52.442;13.284;2023-01-16T12:44:50;9.70;47.20
67050;DHT22;53955;52.442;13.284;2023-01-16T12:47:33;9.70;46.70
67050;DHT22;53955;52.442;13.284;2023-01-16T12:50:18;9.80;46.20
67050;DHT22;53955;52.442;13.284;2023-01-16T12:52:59;9.80;46.00
67050;DHT22;53955;52.442;13.284;2023-01-16T12:55:40;9.90;46.40
67050;DHT22;53955;52.442;13.284;2023-01-16T12:58:11;9.90;46.00
67050;DHT22;53955;52.442;13.284;2023-01-16T13:00:43;10.00;46.40
67050;DHT22;53955;52.442;13.284;2023-01-16T13:03:22;10.00;45.60
67050;DHT22;53955;52.442;13.284;2023-01-16T13:05:55;10.00;45.60
67050;DHT22;53955;52.442;13.284;2023-01-16T13:08:25;10.00;45.50
67050;DHT22;53955;52.442;13.284;2023-01-16T13:10:55;9.90;45.40
67050;DHT22;53955;52.442;13.284;2023-01-16T13:13:49;9.90;45.20
67050;DHT22;53955;52.442;13.284;2023-01-16T13:16:20;9.90;46.10
67050;DHT22;53955;52.442;13.284;2023-01-16T13:18:52;9.80;45.50
67050;DHT22;53955;52.442;13.284;2023-01-16T13:21:25;9.80;45.10
67050;DHT22;53955;52.442;13.284;2023-01-16T13:23:54;9.80;46.20
67050;DHT22;53955;52.442;13.284;2023-01-16T13:26:23;9.90;45.90
67050;DHT22;53955;52.442;13.284;2023-01-16T13:28:55;9.90;46.00
67050;DHT22;53955;52.442;13.284;2023-01-16T13:31:27;9.90;45.30
67050;DHT22;53955;52.442;13.284;2023-01-16T13:34:00;9.90;45.80
67050;DHT22;53955;52.442;13.284;2023-01-16T13:39:39;9.80;47.00
67050;DHT22;53955;52.442;13.284;2023-01-16T13:42:12;9.80;47.10
67050;DHT22;53955;52.442;13.284;2023-01-16T13:44:44;9.70;46.90
67050;DHT22;53955;52.442;13.284;2023-01-16T13:47:31;9.60;47.00
67050;DHT22;53955;52.442;13.284;2023-01-16T13:50:06;9.60;46.90
67050;DHT22;53955;52.442;13.284;2023-01-16T13:52:35;9.60;47.20
67050;DHT22;53955;52.442;13.284;2023-01-16T13:55:20;9.60;47.30
67050;DHT22;53955;52.442;13.284;2023-01-16T13:57:53;9.50;47.20
67050;DHT22;53955;52.442;13.284;2023-01-16T14:00:21;9.50;47.50
67050;DHT22;53955;52.442;13.284;2023-01-16T14:03:02;9.50;47.40
67050;DHT22;53955;52.442;13.284;2023-01-16T14:05:43;9.40;47.60
67050;DHT22;53955;52.442;13.284;2023-01-16T14:11:28;9.30;47.80
67050;DHT22;53955;52.442;13.284;2023-01-16T14:14:15;9.30;47.20
67050;DHT22;53955;52.442;13.284;2023-01-16T14:17:06;9.30;48.30
67050;DHT22;53955;52.442;13.284;2023-01-16T14:19:36;9.30;47.90
67050;DHT22;53955;52.442;13.284;2023-01-16T14:22:03;9.30;48.40
67050;DHT22;53955;52.442;13.284;2023-01-16T14:24:47;9.40;48.30
67050;DHT22;53955;52.442;13.284;2023-01-16T14:27:15;9.30;48.40
67050;DHT22;53955;52.442;13.284;2023-01-16T14:29:46;9.20;48.00
67050;DHT22;53955;52.442;13.284;2023-01-16T14:32:17;9.20;47.80
67050;DHT22;53955;52.442;13.284;2023-01-16T14:34:49;9.20;48.90
67050;DHT22;53955;52.442;13.284;2023-01-16T14:37:20;9.10;48.80
67050;DHT22;53955;52.442;13.284;2023-01-16T14:39:51;9.20;48.30
67050;DHT22;53955;52.442;13.284;2023-01-16T14:42:21;9.20;47.60
67050;DHT22;53955;52.442;13.284;2023-01-16T14:45:21;9.20;48.10
67050;DHT22;53955;52.442;13.284;2023-01-16T14:48:13;9.10;48.00
67050;DHT22;53955;52.442;13.284;2023-01-16T14:51:13;9.20;48.10
67050;DHT22;53955;52.442;13.284;2023-01-16T14:54:00;9.20;47.90
67050;DHT22;53955;52.442;13.284;2023-01-16T14:56:50;9.20;48.00
67050;DHT22;53955;52.442;13.284;2023-01-16T14:59:22;9.10;48.20
67050;DHT22;53955;52.442;13.284;2023-01-16T15:01:59;9.10;48.50
67050;DHT22;53955;52.442;13.284;2023-01-16T15:04:47;9.10;48.10
67050;DHT22;53955;52.442;13.284;2023-01-16T15:07:18;8.90;48.80
67050;DHT22;53955;52.442;13.284;2023-01-16T15:09:48;9.00;48.60
67050;DHT22;53955;52.442;13.284;2023-01-16T15:12:17;8.90;48.60
67050;DHT22;53955;52.442;13.284;2023-01-16T15:14:54;9.00;49.50
67050;DHT22;53955;52.442;13.284;2023-01-16T15:17:27;9.00;49.40
67050;DHT22;53955;52.442;13.284;2023-01-16T15:20:24;8.80;50.00
67050;DHT22;53955;52.442;13.284;2023-01-16T15:23:25;8.70;50.40
67050;DHT22;53955;52.442;13.284;2023-01-16T15:26:32;8.70;51.50
67050;DHT22;53955;52.442;13.284;2023-01-16T15:29:28;8.60;51.10
67050;DHT22;53955;52.442;13.284;2023-01-16T15:32:00;8.60;52.20
67050;DHT22;53955;52.442;13.284;2023-01-16T15:34:29;8.50;51.60
67050;DHT22;53955;52.442;13.284;2023-01-16T15:36:58;8.60;52.20
67050;DHT22;53955;52.442;13.284;2023-01-16T15:39:31;8.50;52.30
67050;DHT22;53955;52.442;13.284;2023-01-16T15:42:11;8.40;52.60
67050;DHT22;53955;52.442;13.284;2023-01-16T15:44:59;8.40;52.30
67050;DHT22;53955;52.442;13.284;2023-01-16T15:47:54;8.40;52.40
67050;DHT22;53955;52.442;13.284;2023-01-16T15:50:32;8.40;52.50
67050;DHT22;53955;52.442;13.284;2023-01-16T15:53:02;8.40;52.90
67050;DHT22;53955;52.442;13.284;2023-01-16T15:55:35;8.40;52.60
67050;DHT22;53955;52.442;13.284;2023-01-16T15:58:04;8.50;52.50
67050;DHT22;53955;52.442;13.284;2023-01-16T16:00:35;8.40;52.40
67050;DHT22;53955;52.442;13.284;2023-01-16T16:03:11;8.40;52.90
67050;DHT22;53955;52.442;13.284;2023-01-16T16:05:39;8.40;52.30
67050;DHT22;53955;52.442;13.284;2023-01-16T16:08:10;8.30;53.00
67050;DHT22;53955;52.442;13.284;2023-01-16T16:10:39;8.30;53.00
67050;DHT22;53955;52.442;13.284;2023-01-16T16:13:25;8.40;52.80
67050;DHT22;53955;52.442;13.284;2023-01-16T16:15:58;8.30;52.80
67050;DHT22;53955;52.442;13.284;2023-01-16T16:18:56;8.20;53.50